»·PEaware :: N515SE KSNA-KSBD

N515SE :: KSNA-KSBD

FLIGHT INFORMATION

Flight Status: Arrived
Operator: Privately registered:
United States
More flights under this callsign
Pilot: Sean E. (24740)
Aircraft: CIRRUS SR-22
(SR22)
More flights by this aircraft type
Origin: KSNA John Wayne-Orange Co
United States
Destination: KSBD San Bernardino Intl
United States
More flights between these airports :: More routes between these airports
Route: +SLI V8 PDZ+
File this flight plan on PilotEdge
Remarks: TEC route CSTP13
Altitude:
(Current/Filed)
5,000ft
Speed:
(Current/Filed)
140kts
Departed: 01-Dec-20 08:44 PM
Arrived: 01-Dec-20 09:08 PM
Distance/Time
Traveled:
40nm/0:24
Distance/Time
To Go:
Arrived

Flight Plot

Page will automatically refresh every two minutes.


Map Options




Map Legend


Flown Route
Filed Route
Departure Airport
Arrival Airport
Navaid (VOR, NDB)
Fix

Horizontal Profiles

Position Reports

Time Latitude Longitude Heading Altitude Ground
Speed
01-Dec-20 20:28 33.676152 -117.870787 341 53ft 0kts
01-Dec-20 20:29 33.676152 -117.870787 341 53ft 0kts
01-Dec-20 20:30 33.676152 -117.870787 341 53ft 0kts
01-Dec-20 20:31 33.676152 -117.870787 341 53ft 0kts
01-Dec-20 20:32 33.676152 -117.870787 341 53ft 0kts
01-Dec-20 20:33 33.676152 -117.870787 341 53ft 0kts
01-Dec-20 20:34 33.676152 -117.870787 341 53ft 0kts
01-Dec-20 20:34 33.676152 -117.870787 341 53ft 0kts
01-Dec-20 20:36 33.676152 -117.870787 341 53ft 0kts
01-Dec-20 20:36 33.676152 -117.870787 341 53ft 0kts
01-Dec-20 20:38 33.676152 -117.870787 341 53ft 0kts
01-Dec-20 20:38 33.676152 -117.870787 341 53ft 0kts
01-Dec-20 20:40 33.676152 -117.870787 341 53ft 0kts
01-Dec-20 20:40 33.676992 -117.869677 47 52ft 18kts
01-Dec-20 20:41 33.681216 -117.866451 115 43ft 0kts
01-Dec-20 20:42 33.680133 -117.866040 208 45ft 30kts
01-Dec-20 20:43 33.660272 -117.881259 225 975ft 102kts
01-Dec-20 20:44 33.639245 -117.910360 232 1843ft 144kts
01-Dec-20 20:45 33.616676 -117.945943 254 3184ft 114kts
01-Dec-20 20:46 33.642607 -117.956810 8 4386ft 117kts
01-Dec-20 20:47 33.679157 -117.947471 12 4873ft 155kts
01-Dec-20 20:48 33.720652 -117.935350 13 4900ft 149kts
01-Dec-20 20:49 33.759682 -117.920527 37 4906ft 148kts
01-Dec-20 20:50 33.788781 -117.885260 51 4905ft 149kts
01-Dec-20 20:51 33.813911 -117.845483 52 4906ft 149kts
01-Dec-20 20:52 33.838756 -117.805430 53 4907ft 149kts
01-Dec-20 20:53 33.861335 -117.763921 74 4907ft 149kts
01-Dec-20 20:54 33.869428 -117.714844 73 4905ft 149kts
01-Dec-20 20:55 33.881758 -117.666912 74 4879ft 150kts
01-Dec-20 20:56 33.893958 -117.618955 72 4878ft 149kts
01-Dec-20 20:57 33.906250 -117.571091 72 4878ft 149kts
01-Dec-20 20:58 33.918786 -117.523316 68 4877ft 149kts
01-Dec-20 20:59 33.945904 -117.488954 39 4879ft 148kts
01-Dec-20 21:00 33.969903 -117.447473 53 4209ft 152kts
01-Dec-20 21:01 33.994877 -117.409459 53 3843ft 139kts
01-Dec-20 21:02 34.028068 -117.384384 23 3368ft 142kts
01-Dec-20 21:03 34.061440 -117.364039 50 3283ft 131kts
01-Dec-20 21:04 34.075233 -117.323982 87 3228ft 127kts
01-Dec-20 21:05 34.079569 -117.288218 70 2120ft 94kts
01-Dec-20 21:06 34.087504 -117.261595 69 1341ft 83kts
01-Dec-20 21:07 34.093616 -117.242123 1 1107ft 14kts
01-Dec-20 21:08 34.095391 -117.242158 357 1103ft 25kts
01-Dec-20 21:09 34.096493 -117.242613 269 1103ft 0kts
01-Dec-20 21:10 34.096493 -117.242613 269 1103ft 0kts
01-Dec-20 21:11 34.096493 -117.242613 269 1103ft 0kts
01-Dec-20 21:12 34.096493 -117.242613 269 1103ft 0kts
01-Dec-20 21:13 34.096493 -117.242613 269 1103ft 0kts
01-Dec-20 21:14 34.096493 -117.242613 269 1103ft 0kts
01-Dec-20 21:15 34.096493 -117.242613 269 1103ft 0kts
01-Dec-20 21:16 34.096493 -117.242613 269 1103ft 0kts
01-Dec-20 21:17 34.096493 -117.242613 269 1103ft 0kts

Navigation Log

Ident Type
Flight plan parsing failed, navigation log unavailable